Time;durP1;ratioP1;P1;durP2;ratioP2;P2;SDS_P1;SDS_P2;PMS_P1;PMS_P2;Temp;Humidity;BMP_temperature;BMP_pressure;BME280_temperature;BME280_humidity;BME280_pressure;Samples;Min_cycle;Max_cycle;Signal;HPM_P1;HPM_P2
2021/07/09 00:01:18;;;;;;;15.67;14.10;;;17.20;99.90;;;;;;4972743;28;20437;-72
2021/07/09 00:03:45;;;;;;;14.87;13.37;;;17.10;99.90;;;;;;4987325;28;20474;-73
2021/07/09 00:06:13;;;;;;;16.77;15.07;;;17.10;99.90;;;;;;4992088;28;20426;-73
2021/07/09 00:08:41;;;;;;;18.33;14.90;;;17.10;99.90;;;;;;4999949;28;20525;-73
2021/07/09 00:11:07;;;;;;;15.97;14.30;;;17.10;99.90;;;;;;4972513;28;20463;-73
2021/07/09 00:13:35;;;;;;;15.60;14.00;;;17.10;99.90;;;;;;4974721;28;20984;-72
2021/07/09 00:16:02;;;;;;;15.37;13.90;;;17.10;99.90;;;;;;4992979;28;20457;-72
2021/07/09 00:18:29;;;;;;;15.70;14.03;;;17.10;99.90;;;;;;4994655;28;20474;-72
2021/07/09 00:20:56;;;;;;;17.77;15.20;;;17.20;99.90;;;;;;4995605;28;20425;-73
2021/07/09 00:23:23;;;;;;;15.17;13.53;;;17.20;99.90;;;;;;5005905;28;20474;-73
2021/07/09 00:25:50;;;;;;;14.77;13.10;;;17.10;99.90;;;;;;4975795;28;20437;-73
2021/07/09 00:28:17;;;;;;;15.77;13.93;;;17.20;99.90;;;;;;4975278;28;20473;-73
2021/07/09 00:30:44;;;;;;;16.10;14.53;;;17.20;99.90;;;;;;4990852;28;20466;-74
2021/07/09 00:33:11;;;;;;;14.17;12.80;;;17.20;99.90;;;;;;4984684;28;20486;-73
2021/07/09 00:35:37;;;;;;;15.60;14.10;;;17.20;99.90;;;;;;5010421;28;20414;-72
2021/07/09 00:38:04;;;;;;;16.10;14.40;;;17.10;99.90;;;;;;4994378;28;20464;-72
2021/07/09 00:40:31;;;;;;;17.23;15.60;;;17.20;99.90;;;;;;5010256;28;20920;-73
2021/07/09 00:42:58;;;;;;;17.50;15.80;;;17.20;99.90;;;;;;4994528;28;21007;-73
2021/07/09 00:45:25;;;;;;;14.70;13.10;;;17.20;99.90;;;;;;4995156;28;20829;-73
2021/07/09 00:47:52;;;;;;;17.43;15.53;;;17.20;99.90;;;;;;4993000;28;20491;-73
2021/07/09 00:50:19;;;;;;;16.63;14.97;;;17.20;99.90;;;;;;4994067;28;20773;-73
2021/07/09 00:52:46;;;;;;;16.70;15.13;;;17.30;99.90;;;;;;4994227;28;20476;-73
2021/07/09 00:55:14;;;;;;;18.30;16.23;;;17.30;99.90;;;;;;4994871;28;20448;-73
2021/07/09 00:57:46;;;;;;;16.77;14.67;;;17.30;99.90;;;;;;4994162;28;20469;-73
2021/07/09 01:00:16;;;;;;;17.03;15.33;;;17.30;99.90;;;;;;4994901;28;20525;-73
2021/07/09 01:02:44;;;;;;;18.73;16.73;;;17.30;99.90;;;;;;4994253;28;20999;-73
2021/07/09 01:05:12;;;;;;;17.07;15.37;;;17.30;99.90;;;;;;5009837;28;20824;-72
2021/07/09 01:07:39;;;;;;;18.23;16.50;;;17.30;99.90;;;;;;5009091;28;20462;-72
2021/07/09 01:10:11;;;;;;;18.13;16.20;;;17.30;99.90;;;;;;4994700;28;20495;-73
2021/07/09 01:12:38;;;;;;;19.83;16.60;;;17.30;99.90;;;;;;4994055;28;20466;-73
2021/07/09 01:15:09;;;;;;;18.90;16.90;;;17.40;99.90;;;;;;4994400;28;20934;-73
2021/07/09 01:17:37;;;;;;;19.33;17.10;;;17.30;99.90;;;;;;4985735;28;20482;-72
2021/07/09 01:20:07;;;;;;;18.80;16.90;;;17.30;99.90;;;;;;4975054;28;20427;-72
2021/07/09 01:22:37;;;;;;;20.90;17.40;;;17.40;99.90;;;;;;4974626;28;20489;-73
2021/07/09 01:25:18;;;;;;;19.93;18.03;;;17.30;99.90;;;;;;4992595;28;20453;-73
2021/07/09 01:27:48;;;;;;;18.50;16.70;;;17.30;99.90;;;;;;4993435;28;21235;-71
2021/07/09 01:30:21;;;;;;;19.00;17.10;;;17.30;99.90;;;;;;4994223;28;20513;-73
2021/07/09 01:32:50;;;;;;;17.80;15.90;;;17.30;99.90;;;;;;5008606;28;20476;-73
2021/07/09 01:35:18;;;;;;;18.90;17.00;;;17.40;99.90;;;;;;4994140;28;20950;-73
2021/07/09 01:38:06;;;;;;;19.63;17.30;;;17.40;99.90;;;;;;4993472;28;20469;-72
2021/07/09 01:40:36;;;;;;;24.40;18.90;;;17.30;99.90;;;;;;4974636;28;20427;-72
2021/07/09 01:43:04;;;;;;;19.37;17.40;;;17.30;99.90;;;;;;4976435;28;20470;-72
2021/07/09 01:45:31;;;;;;;18.10;16.30;;;17.30;99.90;;;;;;4974442;28;20436;-72
2021/07/09 01:47:59;;;;;;;18.77;16.77;;;17.30;99.90;;;;;;4973230;28;20478;-73
2021/07/09 01:50:27;;;;;;;22.53;20.33;;;17.20;99.90;;;;;;4974349;28;20423;-72
2021/07/09 01:52:54;;;;;;;20.10;18.00;;;17.30;99.90;;;;;;4973671;28;20466;-72
2021/07/09 01:55:21;;;;;;;19.60;17.70;;;17.30;99.90;;;;;;4974341;28;20427;-72
2021/07/09 01:57:48;;;;;;;22.07;17.97;;;17.30;99.90;;;;;;4973312;28;20512;-72
2021/07/09 02:00:18;;;;;;;19.57;17.47;;;17.20;99.90;;;;;;4974282;28;20430;-72
2021/07/09 02:02:45;;;;;;;19.50;17.73;;;17.20;99.90;;;;;;4990282;28;20465;-73
2021/07/09 02:05:15;;;;;;;28.20;19.27;;;17.20;99.90;;;;;;5008595;28;20430;-72
2021/07/09 02:07:43;;;;;;;19.53;17.40;;;17.20;99.90;;;;;;4992709;28;20457;-72
2021/07/09 02:10:12;;;;;;;20.50;18.43;;;17.20;99.90;;;;;;4993418;28;20434;-73
2021/07/09 02:12:40;;;;;;;22.87;18.60;;;17.20;99.90;;;;;;4992596;28;20848;-71
2021/07/09 02:15:15;;;;;;;23.20;19.87;;;17.20;99.90;;;;;;4992217;28;20422;-72
2021/07/09 02:17:43;;;;;;;21.00;18.80;;;17.20;99.90;;;;;;4992540;28;21021;-73
2021/07/09 02:20:13;;;;;;;20.47;18.37;;;17.20;99.90;;;;;;4976123;28;20809;-72
2021/07/09 02:22:41;;;;;;;21.80;19.60;;;17.20;99.90;;;;;;4992686;28;20843;-73
2021/07/09 02:25:08;;;;;;;20.47;18.33;;;17.10;99.90;;;;;;4993185;28;20450;-72
2021/07/09 02:27:37;;;;;;;21.20;19.07;;;17.10;99.90;;;;;;4992146;28;20549;-72
2021/07/09 02:30:07;;;;;;;20.37;18.17;;;17.20;99.90;;;;;;4993123;28;20429;-73
2021/07/09 02:32:34;;;;;;;22.07;19.77;;;17.20;99.90;;;;;;4992219;28;20470;-73
2021/07/09 02:35:01;;;;;;;22.07;19.80;;;17.10;99.90;;;;;;4991392;28;20863;-73
2021/07/09 02:37:28;;;;;;;23.27;19.57;;;17.10;99.90;;;;;;4992370;28;20484;-73
2021/07/09 02:39:55;;;;;;;21.80;19.60;;;17.00;99.90;;;;;;4993098;28;20464;-72
2021/07/09 02:42:22;;;;;;;21.57;19.27;;;17.10;99.90;;;;;;5007142;28;20481;-73
2021/07/09 02:44:49;;;;;;;23.07;20.53;;;17.10;99.90;;;;;;4992961;28;20422;-73
2021/07/09 02:47:16;;;;;;;22.23;19.83;;;17.00;99.90;;;;;;4992181;28;20863;-73
2021/07/09 02:49:42;;;;;;;21.50;19.33;;;17.00;99.90;;;;;;5007089;28;20442;-73
2021/07/09 02:52:11;;;;;;;23.23;20.87;;;17.00;99.90;;;;;;5007151;28;20679;-72
2021/07/09 02:54:37;;;;;;;22.13;19.80;;;17.10;99.90;;;;;;4992502;28;20442;-72
2021/07/09 02:57:04;;;;;;;21.87;19.67;;;17.10;99.90;;;;;;4991951;28;20469;-72
2021/07/09 02:59:31;;;;;;;24.50;19.60;;;17.10;99.90;;;;;;4992663;28;20430;-73
2021/07/09 03:01:58;;;;;;;23.03;19.83;;;17.10;99.90;;;;;;4992058;28;20485;-73
2021/07/09 03:04:25;;;;;;;22.13;19.97;;;17.10;99.90;;;;;;4992266;28;20805;-72
2021/07/09 03:06:52;;;;;;;22.07;19.87;;;17.10;99.90;;;;;;4992081;28;20549;-73
2021/07/09 03:09:19;;;;;;;22.93;19.77;;;17.10;99.90;;;;;;4981154;28;20443;-72
2021/07/09 03:11:46;;;;;;;24.10;20.20;;;17.10;99.90;;;;;;4972667;28;20845;-72
2021/07/09 03:14:13;;;;;;;23.63;19.03;;;17.10;99.90;;;;;;4975158;28;20443;-73
2021/07/09 03:16:40;;;;;;;23.93;20.80;;;17.10;99.90;;;;;;4989420;28;20437;-72
2021/07/09 03:19:07;;;;;;;23.37;20.93;;;17.10;99.90;;;;;;4987755;28;20431;-73
2021/07/09 03:21:35;;;;;;;22.53;20.23;;;17.00;99.90;;;;;;4972555;28;20437;-72
2021/07/09 03:24:04;;;;;;;22.70;20.50;;;17.00;99.90;;;;;;4973237;28;20513;-73
2021/07/09 03:26:30;;;;;;;26.90;20.47;;;17.10;99.90;;;;;;4972110;28;20431;-72
2021/07/09 03:28:57;;;;;;;25.13;20.33;;;17.10;99.90;;;;;;4972843;28;20786;-72
2021/07/09 03:31:29;;;;;;;24.13;21.53;;;17.10;99.90;;;;;;4971897;28;20445;-72
2021/07/09 03:33:56;;;;;;;24.23;21.60;;;17.20;99.90;;;;;;4990631;28;20497;-73
2021/07/09 03:36:24;;;;;;;23.10;20.73;;;17.20;99.90;;;;;;4992300;28;20418;-73
2021/07/09 03:38:53;;;;;;;25.37;21.43;;;17.10;99.90;;;;;;4975163;28;20891;-72
2021/07/09 03:41:20;;;;;;;23.50;21.10;;;17.20;99.90;;;;;;4972935;28;20446;-72
2021/07/09 03:43:47;;;;;;;22.63;20.33;;;17.10;99.90;;;;;;4972400;28;20989;-73
2021/07/09 03:46:16;;;;;;;23.33;20.83;;;17.10;99.90;;;;;;4973008;28;20522;-72
2021/07/09 03:48:43;;;;;;;25.63;22.93;;;17.10;99.90;;;;;;4994702;28;21046;-72
2021/07/09 03:51:11;;;;;;;24.33;21.73;;;17.00;99.90;;;;;;4996189;28;20426;-72
2021/07/09 03:53:39;;;;;;;25.57;21.80;;;17.00;99.90;;;;;;4995558;28;20991;-72
2021/07/09 03:56:05;;;;;;;22.57;20.23;;;17.00;99.90;;;;;;5011023;28;20437;-72
2021/07/09 03:58:33;;;;;;;22.73;19.37;;;17.00;99.90;;;;;;4995317;28;20457;-72
2021/07/09 04:01:00;;;;;;;21.60;19.30;;;17.10;99.90;;;;;;4995866;28;20429;-72
2021/07/09 04:03:27;;;;;;;23.47;21.10;;;17.10;99.90;;;;;;4989884;28;20541;-72
2021/07/09 04:05:54;;;;;;;23.40;21.00;;;17.10;99.90;;;;;;4975115;28;20438;-72
2021/07/09 04:08:21;;;;;;;20.90;18.70;;;17.10;99.90;;;;;;4979293;28;20475;-72
2021/07/09 04:10:48;;;;;;;22.60;20.20;;;17.10;99.90;;;;;;5010747;28;20437;-72
2021/07/09 04:13:15;;;;;;;20.60;18.53;;;17.10;99.90;;;;;;4995113;28;20471;-72
2021/07/09 04:15:42;;;;;;;21.33;19.23;;;17.10;99.90;;;;;;4999914;28;20520;-72
2021/07/09 04:18:09;;;;;;;22.63;20.23;;;17.10;99.90;;;;;;4994747;28;20470;-72
2021/07/09 04:20:35;;;;;;;21.83;19.13;;;17.10;99.90;;;;;;5010632;28;21031;-73
2021/07/09 04:23:03;;;;;;;21.77;19.47;;;17.10;99.90;;;;;;4994795;28;20473;-72
2021/07/09 04:25:30;;;;;;;22.07;17.37;;;17.10;99.90;;;;;;4993964;28;20438;-72
2021/07/09 04:27:57;;;;;;;20.37;18.27;;;17.20;99.90;;;;;;4994717;28;20468;-72
2021/07/09 04:30:24;;;;;;;21.30;19.07;;;17.20;99.90;;;;;;4995441;28;20426;-73
2021/07/09 04:32:51;;;;;;;21.10;18.90;;;17.20;99.90;;;;;;4994486;28;20474;-72
2021/07/09 04:35:18;;;;;;;19.17;17.20;;;17.20;99.90;;;;;;4995519;28;20811;-72
2021/07/09 04:37:44;;;;;;;19.10;17.20;;;17.20;99.90;;;;;;5009567;28;20549;-72
2021/07/09 04:40:12;;;;;;;20.23;18.10;;;17.20;99.90;;;;;;4995251;28;20453;-72
2021/07/09 04:42:39;;;;;;;19.00;16.77;;;17.20;99.90;;;;;;4993286;28;20474;-72
2021/07/09 04:45:06;;;;;;;25.70;18.47;;;17.20;99.90;;;;;;4995171;28;20418;-72
2021/07/09 04:47:33;;;;;;;21.03;18.73;;;17.20;99.90;;;;;;4994169;28;20468;-73
2021/07/09 04:50:00;;;;;;;19.80;16.63;;;17.20;99.90;;;;;;4995033;28;20426;-73
2021/07/09 04:52:27;;;;;;;20.30;17.30;;;17.20;99.90;;;;;;4994028;28;21038;-73
2021/07/09 04:54:54;;;;;;;21.03;18.63;;;17.20;99.90;;;;;;4995372;28;20441;-73
2021/07/09 04:57:21;;;;;;;20.90;18.23;;;17.20;99.90;;;;;;4994133;28;20472;-72
2021/07/09 04:59:48;;;;;;;18.67;16.87;;;17.30;99.90;;;;;;4994461;28;20458;-72
2021/07/09 05:02:15;;;;;;;22.60;17.40;;;17.20;99.90;;;;;;4992998;28;20840;-72
2021/07/09 05:04:44;;;;;;;23.33;18.90;;;17.30;99.90;;;;;;4977681;28;20454;-72
2021/07/09 05:07:11;;;;;;;21.13;17.97;;;17.30;99.90;;;;;;4973277;28;20550;-73
2021/07/09 05:09:37;;;;;;;19.90;17.90;;;17.30;99.90;;;;;;4989274;28;20468;-72
2021/07/09 05:12:04;;;;;;;21.43;18.37;;;17.30;99.90;;;;;;4992707;28;20474;-72
2021/07/09 05:14:31;;;;;;;22.33;18.53;;;17.30;99.90;;;;;;4994433;28;20428;-72
2021/07/09 05:16:58;;;;;;;20.43;18.20;;;17.30;99.90;;;;;;5002416;28;20474;-72
2021/07/09 05:19:25;;;;;;;19.93;17.90;;;17.30;99.90;;;;;;4974941;28;20778;-72
2021/07/09 05:21:52;;;;;;;22.80;16.80;;;17.40;99.90;;;;;;4974174;28;20957;-72
2021/07/09 05:24:25;;;;;;;18.93;16.90;;;17.40;99.90;;;;;;4974231;28;20455;-72
2021/07/09 05:26:54;;;;;;;18.27;16.40;;;17.40;99.90;;;;;;4973561;28;20494;-72
2021/07/09 05:29:21;;;;;;;21.20;16.90;;;17.40;99.90;;;;;;4974825;28;20427;-71
2021/07/09 05:31:49;;;;;;;17.77;15.77;;;17.40;99.90;;;;;;4974198;28;20419;-72
2021/07/09 05:34:16;;;;;;;18.70;16.80;;;17.40;99.90;;;;;;4986439;28;20996;-71
2021/07/09 05:36:44;;;;;;;20.93;15.83;;;17.40;99.90;;;;;;4994288;28;20784;-72
2021/07/09 05:39:13;;;;;;;17.80;15.97;;;17.40;99.90;;;;;;4982937;28;20435;-71
2021/07/09 05:41:39;;;;;;;20.07;18.00;;;17.50;99.90;;;;;;4991677;28;20426;-72
2021/07/09 05:44:06;;;;;;;20.50;15.60;;;17.50;99.90;;;;;;4974567;28;20443;-72
2021/07/09 05:46:33;;;;;;;20.53;16.77;;;17.60;99.90;;;;;;4975005;28;20446;-71
2021/07/09 05:49:00;;;;;;;18.40;16.40;;;17.60;99.90;;;;;;4973192;28;20435;-71
2021/07/09 05:51:28;;;;;;;18.63;16.70;;;17.60;99.90;;;;;;4989457;28;20423;-71
2021/07/09 05:53:55;;;;;;;23.00;17.03;;;17.60;99.90;;;;;;4980534;28;20462;-72
2021/07/09 05:56:22;;;;;;;20.60;17.97;;;17.60;99.90;;;;;;4984208;28;20441;-71
2021/07/09 05:58:49;;;;;;;19.50;16.33;;;17.60;99.90;;;;;;4974889;28;20463;-70
2021/07/09 06:01:16;;;;;;;20.83;17.70;;;17.70;99.90;;;;;;5000455;28;20813;-71
2021/07/09 06:03:43;;;;;;;18.43;16.00;;;17.60;99.90;;;;;;4973611;28;20502;-71
2021/07/09 06:06:10;;;;;;;21.03;17.17;;;17.70;99.90;;;;;;4976197;28;20977;-71
2021/07/09 06:08:37;;;;;;;22.10;19.80;;;17.70;99.90;;;;;;4989016;28;20852;-71
2021/07/09 06:11:04;;;;;;;23.40;16.97;;;17.70;99.90;;;;;;4973317;28;20863;-70
2021/07/09 06:13:31;;;;;;;18.03;15.80;;;17.70;99.90;;;;;;4973209;28;20482;-71
2021/07/09 06:15:58;;;;;;;20.90;15.97;;;17.70;99.90;;;;;;4974145;28;20786;-71
2021/07/09 06:18:25;;;;;;;21.47;15.63;;;17.60;99.90;;;;;;4984518;28;20476;-70
2021/07/09 06:20:52;;;;;;;24.50;16.70;;;17.60;99.90;;;;;;4993407;28;20508;-71
2021/07/09 06:23:19;;;;;;;28.67;18.17;;;17.50;99.90;;;;;;4971930;28;20478;-73
2021/07/09 06:25:46;;;;;;;22.53;16.80;;;17.50;99.90;;;;;;4988631;28;20419;-72
2021/07/09 06:28:15;;;;;;;24.17;18.43;;;17.50;99.90;;;;;;4988045;28;20468;-71
2021/07/09 06:30:42;;;;;;;26.20;17.70;;;17.50;99.90;;;;;;4973749;28;20473;-71
2021/07/09 06:33:09;;;;;;;23.23;17.73;;;17.50;99.90;;;;;;4991366;28;20473;-70
2021/07/09 06:35:37;;;;;;;24.50;15.77;;;17.50;99.90;;;;;;4993251;28;20429;-72
2021/07/09 06:38:04;;;;;;;21.27;14.80;;;17.50;99.90;;;;;;4992359;28;20494;-70
2021/07/09 06:40:32;;;;;;;21.10;15.60;;;17.50;99.90;;;;;;5008149;28;20426;-71
2021/07/09 06:42:59;;;;;;;23.50;16.97;;;17.40;99.90;;;;;;5007367;28;20474;-72
2021/07/09 06:45:26;;;;;;;18.63;14.80;;;17.50;99.90;;;;;;5008179;28;20430;-70
2021/07/09 06:47:53;;;;;;;20.53;16.70;;;17.50;99.90;;;;;;4991055;28;20465;-73
2021/07/09 06:50:21;;;;;;;18.83;16.07;;;17.50;99.90;;;;;;4992978;28;20429;-71
2021/07/09 06:52:48;;;;;;;22.60;16.50;;;17.40;99.90;;;;;;5007064;28;21003;-71
2021/07/09 06:55:15;;;;;;;24.17;14.60;;;17.40;99.90;;;;;;4991247;28;20467;-71
2021/07/09 06:57:51;;;;;;;19.27;16.00;;;17.50;99.90;;;;;;4992009;28;20841;-71
2021/07/09 07:00:19;;;;;;;22.07;15.13;;;17.50;99.90;;;;;;4992880;28;20508;-71
2021/07/09 07:02:46;;;;;;;20.97;13.57;;;17.40;99.90;;;;;;4992072;28;20543;-71
2021/07/09 07:05:14;;;;;;;18.63;14.50;;;17.40;99.90;;;;;;4991746;28;20430;-72
2021/07/09 07:07:42;;;;;;;21.90;16.10;;;17.40;99.90;;;;;;4990737;28;20469;-71
2021/07/09 07:10:09;;;;;;;20.13;14.70;;;17.40;99.90;;;;;;4992599;28;20464;-71
2021/07/09 07:12:37;;;;;;;18.57;13.60;;;17.40;99.90;;;;;;4991941;28;20822;-71
2021/07/09 07:15:07;;;;;;;18.90;15.07;;;17.50;99.90;;;;;;4992545;28;20928;-70
2021/07/09 07:17:35;;;;;;;19.83;15.00;;;17.40;99.90;;;;;;4991563;28;20462;-71
2021/07/09 07:20:02;;;;;;;17.07;12.87;;;17.40;99.90;;;;;;4992541;28;20848;-71
2021/07/09 07:22:29;;;;;;;17.33;12.70;;;17.30;99.90;;;;;;5012153;28;20453;-71
2021/07/09 07:24:56;;;;;;;16.60;14.03;;;17.30;99.90;;;;;;4998996;28;20455;-72
2021/07/09 07:27:25;;;;;;;17.90;13.10;;;17.30;99.90;;;;;;4998371;28;20541;-73
2021/07/09 07:29:51;;;;;;;18.37;12.70;;;17.30;99.90;;;;;;5013891;28;20825;-73
2021/07/09 07:32:18;;;;;;;22.73;15.70;;;17.30;99.90;;;;;;4984261;28;21039;-75
2021/07/09 07:34:47;;;;;;;33.20;17.47;;;17.20;99.90;;;;;;4979467;28;20442;-74
2021/07/09 07:37:14;;;;;;;27.43;17.20;;;17.20;99.90;;;;;;4981467;28;20457;-73
2021/07/09 07:39:42;;;;;;;27.93;16.43;;;17.10;99.90;;;;;;4992137;28;20803;-74
2021/07/09 07:42:09;;;;;;;22.87;16.30;;;17.00;99.90;;;;;;4978941;28;20498;-72
2021/07/09 07:44:35;;;;;;;21.20;13.83;;;17.00;99.90;;;;;;4979323;28;20434;-74
2021/07/09 07:47:02;;;;;;;20.20;13.67;;;17.00;99.90;;;;;;4991091;28;20464;-71
2021/07/09 07:49:29;;;;;;;20.83;13.13;;;16.90;99.90;;;;;;4998894;28;20426;-74
2021/07/09 07:51:56;;;;;;;20.03;12.53;;;16.90;99.90;;;;;;5013377;28;21013;-73
2021/07/09 07:54:23;;;;;;;16.47;12.13;;;16.90;99.90;;;;;;5005116;28;21005;-73
2021/07/09 07:56:51;;;;;;;15.17;12.13;;;16.90;99.90;;;;;;4996887;28;20457;-74
2021/07/09 07:59:17;;;;;;;18.10;11.30;;;16.90;99.90;;;;;;4997044;28;20448;-75
2021/07/09 08:01:50;;;;;;;16.77;11.77;;;16.80;99.90;;;;;;4998136;28;20516;-76
2021/07/09 08:04:17;;;;;;;14.70;10.60;;;16.70;99.90;;;;;;4984423;28;20856;-72
2021/07/09 08:06:47;;;;;;;13.97;12.47;;;16.60;99.90;;;;;;4977357;28;20525;-74
2021/07/09 08:09:14;;;;;;;12.87;10.50;;;16.50;99.90;;;;;;4989778;28;20894;-74
2021/07/09 08:11:41;;;;;;;13.90;10.90;;;16.60;99.90;;;;;;4997452;28;20428;-74
2021/07/09 08:14:07;;;;;;;16.03;10.20;;;16.70;99.90;;;;;;4980969;28;20856;-77
2021/07/09 08:16:34;;;;;;;11.87;9.77;;;16.60;99.90;;;;;;5012212;28;20457;-74
2021/07/09 08:19:02;;;;;;;14.90;10.87;;;16.60;99.90;;;;;;5013535;28;20529;-73
2021/07/09 08:21:28;;;;;;;14.50;11.70;;;16.60;99.90;;;;;;4997607;28;20428;-73
2021/07/09 08:23:55;;;;;;;21.23;11.23;;;16.70;99.90;;;;;;4986984;28;20472;-74
2021/07/09 08:26:22;;;;;;;12.40;10.70;;;16.70;99.90;;;;;;4989249;28;20438;-74
2021/07/09 08:28:49;;;;;;;12.23;10.17;;;16.60;99.90;;;;;;4987991;28;21019;-72
2021/07/09 08:31:16;;;;;;;14.10;11.00;;;16.60;99.90;;;;;;4995150;28;20441;-74
2021/07/09 08:33:43;;;;;;;14.77;10.00;;;16.60;99.90;;;;;;4979240;28;20877;-73
2021/07/09 08:36:14;;;;;;;15.70;11.33;;;16.60;99.90;;;;;;5007052;28;20559;-76
2021/07/09 08:38:41;;;;;;;16.83;12.33;;;16.60;99.90;;;;;;4989682;28;20502;-74
2021/07/09 08:41:12;;;;;;;18.90;12.80;;;16.60;99.90;;;;;;5004335;28;21120;-74
2021/07/09 08:43:42;;;;;;;15.17;11.37;;;16.50;99.90;;;;;;5004304;28;20516;-74
2021/07/09 08:46:09;;;;;;;17.73;12.30;;;16.50;99.90;;;;;;4991777;28;20504;-73
2021/07/09 08:48:40;;;;;;;13.80;11.43;;;16.50;99.90;;;;;;4992919;28;20469;-72
2021/07/09 08:51:09;;;;;;;16.00;11.20;;;16.50;99.90;;;;;;4977748;28;20441;-76
2021/07/09 08:53:40;;;;;;;13.83;12.33;;;16.40;99.90;;;;;;4982146;28;20501;-74
2021/07/09 08:56:07;;;;;;;15.73;12.50;;;16.40;99.90;;;;;;5010221;28;20430;-75
2021/07/09 08:58:34;;;;;;;17.80;11.30;;;16.50;99.90;;;;;;4992769;28;20457;-72
2021/07/09 09:01:03;;;;;;;17.00;12.83;;;16.50;99.90;;;;;;4995327;28;20440;-80
2021/07/09 09:03:30;;;;;;;19.30;11.93;;;16.50;99.90;;;;;;4994650;28;20515;-81
2021/07/09 09:06:00;;;;;;;15.80;13.00;;;16.50;99.90;;;;;;4994115;28;20437;-82
2021/07/09 09:08:34;;;;;;;20.77;13.50;;;16.60;99.90;;;;;;4992989;28;20553;-81
2021/07/09 09:11:02;;;;;;;19.33;13.30;;;16.70;99.90;;;;;;5003959;28;20428;-83
2021/07/09 09:13:30;;;;;;;15.77;13.20;;;16.70;99.90;;;;;;5005089;28;20482;-83
2021/07/09 09:16:01;;;;;;;15.57;12.23;;;16.80;99.90;;;;;;4994332;28;20423;-82
2021/07/09 09:18:35;;;;;;;17.27;13.27;;;16.80;99.90;;;;;;4994472;28;20815;-82
2021/07/09 09:21:06;;;;;;;18.80;13.60;;;16.80;99.90;;;;;;4993963;28;20430;-83
2021/07/09 09:23:36;;;;;;;20.10;11.97;;;16.80;99.90;;;;;;4990182;28;20479;-82
2021/07/09 09:26:04;;;;;;;13.43;12.03;;;17.00;99.90;;;;;;4975182;28;20477;-82
2021/07/09 09:28:35;;;;;;;21.37;13.07;;;17.00;99.90;;;;;;4974604;28;20463;-82
2021/07/09 09:31:02;;;;;;;15.30;11.20;;;17.00;99.90;;;;;;4975485;28;20463;-83
2021/07/09 09:33:34;;;;;;;19.40;14.00;;;17.10;99.90;;;;;;4973925;28;20502;-81
2021/07/09 09:36:07;;;;;;;13.80;11.73;;;17.10;99.90;;;;;;4974975;28;20518;-78
2021/07/09 09:38:35;;;;;;;18.10;12.20;;;17.10;99.90;;;;;;4982421;28;20565;-81
2021/07/09 09:41:03;;;;;;;15.23;12.97;;;17.20;99.90;;;;;;4994211;28;20444;-81
2021/07/09 09:43:32;;;;;;;14.50;12.10;;;17.20;99.90;;;;;;4992457;28;20496;-79
2021/07/09 09:46:11;;;;;;;17.83;12.73;;;17.30;99.90;;;;;;4992987;28;20426;-80
2021/07/09 09:48:41;;;;;;;15.77;11.43;;;17.40;99.90;;;;;;4988578;28;20477;-79
2021/07/09 09:51:28;;;;;;;12.57;11.23;;;17.40;99.90;;;;;;4974945;28;20943;-80
2021/07/09 09:54:01;;;;;;;13.00;11.73;;;17.60;99.90;;;;;;4982501;28;20480;-79
2021/07/09 09:56:47;;;;;;;12.30;11.00;;;17.70;99.90;;;;;;5007975;28;20430;-79
2021/07/09 09:59:16;;;;;;;14.33;11.30;;;17.80;99.90;;;;;;4992695;28;20512;-79
2021/07/09 10:01:51;;;;;;;17.90;10.87;;;17.90;99.90;;;;;;4989428;28;20938;-79
2021/07/09 10:04:18;;;;;;;13.20;11.13;;;18.10;99.90;;;;;;4972931;28;20452;-78
2021/07/09 10:06:46;;;;;;;11.93;10.73;;;18.20;99.90;;;;;;4975814;28;20429;-80
2021/07/09 10:09:19;;;;;;;13.60;11.27;;;18.30;99.90;;;;;;4988882;28;20973;-77
2021/07/09 10:11:47;;;;;;;11.73;10.63;;;18.50;99.90;;;;;;4973791;28;20433;-76
2021/07/09 10:14:16;;;;;;;10.53;9.30;;;18.60;99.90;;;;;;4973295;28;20564;-75
2021/07/09 10:16:46;;;;;;;12.57;10.40;;;18.60;99.90;;;;;;4980771;28;20452;-75
2021/07/09 10:19:38;;;;;;;10.23;9.23;;;18.80;99.90;;;;;;4993428;28;20526;-74
2021/07/09 10:22:25;;;;;;;13.20;10.07;;;18.90;99.90;;;;;;4992115;28;20471;-75
2021/07/09 10:24:54;;;;;;;12.10;9.10;;;18.90;99.90;;;;;;5007796;28;20450;-74
2021/07/09 10:27:25;;;;;;;11.03;8.57;;;18.90;99.90;;;;;;5007811;28;20888;-74
2021/07/09 10:29:55;;;;;;;11.20;8.53;;;19.10;99.90;;;;;;4993626;28;20464;-75
2021/07/09 10:32:35;;;;;;;9.60;7.93;;;19.20;99.90;;;;;;4992611;28;21031;-75
2021/07/09 10:35:04;;;;;;;12.43;8.53;;;19.20;99.90;;;;;;4992081;28;20482;-75
2021/07/09 10:37:31;;;;;;;10.03;8.17;;;19.20;99.90;;;;;;5007538;28;20538;-74
2021/07/09 10:40:14;;;;;;;9.13;8.13;;;19.30;99.90;;;;;;4977468;28;20462;-74
2021/07/09 10:42:43;;;;;;;10.80;8.17;;;19.40;99.90;;;;;;4973196;28;20946;-77
2021/07/09 10:45:15;;;;;;;8.27;7.40;;;19.30;99.90;;;;;;4988670;28;20439;-75
2021/07/09 10:48:10;;;;;;;9.07;8.17;;;19.30;99.90;;;;;;4973470;28;20504;-74
2021/07/09 10:50:40;;;;;;;8.93;6.73;;;19.40;99.90;;;;;;4973692;28;20936;-75
2021/07/09 10:53:10;;;;;;;9.37;8.30;;;19.40;99.90;;;;;;5003521;28;21038;-74
2021/07/09 10:56:07;;;;;;;11.40;9.73;;;19.50;99.90;;;;;;4992917;28;20816;-75
2021/07/09 10:58:45;;;;;;;9.40;6.60;;;19.50;99.90;;;;;;4992722;28;20456;-76
2021/07/09 11:01:18;;;;;;;7.37;6.50;;;19.40;99.90;;;;;;4993089;28;20420;-75
2021/07/09 11:03:50;;;;;;;9.80;7.90;;;19.50;99.90;;;;;;4992850;28;20477;-75
2021/07/09 11:06:31;;;;;;;7.67;6.80;;;19.40;99.90;;;;;;5007535;28;20440;-74
2021/07/09 11:09:08;;;;;;;10.27;7.40;;;19.40;99.90;;;;;;4982451;28;20551;-76
2021/07/09 11:11:50;;;;;;;8.10;6.07;;;19.40;99.90;;;;;;4992247;28;20461;-74
2021/07/09 11:14:39;;;;;;;11.07;6.60;;;19.40;99.90;;;;;;4991382;28;20567;-76
2021/07/09 11:17:16;;;;;;;11.60;7.30;;;19.40;99.90;;;;;;4987683;28;20453;-75
2021/07/09 11:19:50;;;;;;;8.00;5.33;;;19.50;99.90;;;;;;4992619;28;20533;-73
2021/07/09 11:22:21;;;;;;;7.87;5.10;;;19.60;99.90;;;;;;4990957;28;20477;-71
2021/07/09 11:24:56;;;;;;;6.60;4.80;;;19.80;99.90;;;;;;4992746;28;20538;-70
2021/07/09 11:27:28;;;;;;;5.63;4.47;;;20.00;99.90;;;;;;4992122;28;20881;-72
2021/07/09 11:30:01;;;;;;;7.93;5.47;;;20.10;99.90;;;;;;4988400;28;20443;-71
2021/07/09 11:32:33;;;;;;;8.20;5.47;;;20.30;99.90;;;;;;4976964;28;21115;-71
2021/07/09 11:35:05;;;;;;;7.60;6.20;;;20.50;99.90;;;;;;4991005;28;20509;-70
2021/07/09 11:37:33;;;;;;;6.77;5.60;;;20.50;99.90;;;;;;4991144;28;20563;-70
2021/07/09 11:40:10;;;;;;;9.47;6.30;;;20.60;99.90;;;;;;4987748;28;20477;-71
2021/07/09 11:42:39;;;;;;;9.70;6.57;;;20.60;99.90;;;;;;4975201;28;20462;-71
2021/07/09 11:45:11;;;;;;;10.43;6.60;;;20.50;99.90;;;;;;4975853;28;20521;-72
2021/07/09 11:47:40;;;;;;;7.90;6.93;;;20.60;99.90;;;;;;4991485;28;20514;-70
2021/07/09 11:50:20;;;;;;;8.53;7.73;;;20.70;99.90;;;;;;5007252;28;20432;-73
2021/07/09 11:52:52;;;;;;;8.50;7.60;;;20.70;99.90;;;;;;4974472;28;20488;-74
2021/07/09 11:55:30;;;;;;;9.37;7.43;;;20.90;99.90;;;;;;4978146;28;20844;-73
2021/07/09 11:58:05;;;;;;;13.20;10.00;;;20.80;99.90;;;;;;4972404;28;20512;-73
2021/07/09 12:00:32;;;;;;;12.47;11.07;;;20.90;99.90;;;;;;4971730;28;20441;-74
2021/07/09 12:02:59;;;;;;;14.17;10.37;;;20.90;99.90;;;;;;4974391;28;20484;-74
2021/07/09 12:05:27;;;;;;;10.37;9.37;;;20.70;99.90;;;;;;4990864;28;20864;-73
2021/07/09 12:07:55;;;;;;;10.17;9.13;;;20.70;99.90;;;;;;4991621;28;20834;-73
2021/07/09 12:10:28;;;;;;;12.00;10.30;;;20.70;99.90;;;;;;4996325;28;20462;-76
2021/07/09 12:13:04;;;;;;;13.13;10.77;;;20.70;99.90;;;;;;4995403;28;20473;-75
2021/07/09 12:15:31;;;;;;;14.83;10.33;;;20.70;99.90;;;;;;4994536;28;20473;-73
2021/07/09 12:18:04;;;;;;;9.60;8.80;;;20.70;99.90;;;;;;4974086;28;20574;-75
2021/07/09 12:20:39;;;;;;;16.13;10.07;;;20.70;99.90;;;;;;4991282;28;20449;-73
2021/07/09 12:23:14;;;;;;;13.83;11.27;;;20.70;99.90;;;;;;4976133;28;20541;-74
2021/07/09 12:25:49;;;;;;;12.57;10.90;;;20.60;99.90;;;;;;4995397;28;20828;-74
2021/07/09 12:28:29;;;;;;;11.63;10.43;;;20.70;99.90;;;;;;4993758;28;20797;-72
2021/07/09 12:31:02;;;;;;;11.60;9.87;;;20.60;99.90;;;;;;4995481;28;20958;-75
2021/07/09 12:33:38;;;;;;;15.87;10.57;;;20.70;99.90;;;;;;5008900;28;20465;-73
2021/07/09 12:36:08;;;;;;;11.33;10.23;;;20.60;99.90;;;;;;4995472;28;20445;-76
2021/07/09 12:38:44;;;;;;;12.20;11.00;;;20.60;99.90;;;;;;5008264;28;20497;-74